Enchantment of the Seas — C6FZ7 — position and weather

sailwx.info

Track history (hours):
 
Tides and Currents Weather Stations Pressure Air Temp Water Temp Dewpoint Dewpoint Depression Visibility Wind Speed Wind Dir Waves Ship Positions

Enchantment of the Seas (Bahamas)

Last reported at 2017-Sep-18 22:43 UTC. Time now 2017-Sep-20 00:34 UTC.
Position N 25°57' W 079°42'.

Type: Passenger vessel. MMSI: 311733000.

Date/timePositionNaut miles runAvg speedWind from/ knotsBaromVisibWave heightAir tempDewpointWater temp
2017-Sep-18 22:43N 25°57' W 079°42'613.7
2017-Sep-18 22:16N 25°54' W 079°49'413.4
2017-Sep-18 21:59N 25°52' W 079°52'613.2
2017-Sep-18 21:30N 25°49' W 079°58'612.6
2017-Sep-18 21:00N 25°46' W 080°05'5 9.2
2017-Sep-18 20:30N 25°46' W 080°10'1 2.2
2017-Sep-18 20:00N 25°47' W 080°11'0 0.1
2017-Sep-18 19:30N 25°47' W 080°11'0 0.0
2017-Sep-18 19:00N 25°47' W 080°11'0 0.0
2017-Sep-18 18:27N 25°47' W 080°11'0 0.0
2017-Sep-18 17:57N 25°47' W 080°11'0 0.0
2017-Sep-18 17:30N 25°47' W 080°11'0 0.0
2017-Sep-18 17:00N 25°47' W 080°11'0 0.0
2017-Sep-18 16:30N 25°47' W 080°11'0 0.0
2017-Sep-18 15:57N 25°47' W 080°11'0 0.0
2017-Sep-18 15:30N 25°47' W 080°11'0 0.0
2017-Sep-18 15:00N 25°47' W 080°11'0 0.0
2017-Sep-18 14:27N 25°47' W 080°11'0 0.0
2017-Sep-18 13:57N 25°47' W 080°11'0 0.0
2017-Sep-18 13:27N 25°47' W 080°11'0 0.0
2017-Sep-18 13:00N 25°47' W 080°11'0 0.0
2017-Sep-18 12:30N 25°47' W 080°11'0 0.0
2017-Sep-18 12:00N 25°47' W 080°11'0 0.0
2017-Sep-18 11:27N 25°47' W 080°11'0 0.0
2017-Sep-18 10:57N 25°47' W 080°11'0 0.4
2017-Sep-18 10:30N 25°47' W 080°11'4 7.4
2017-Sep-18 10:01N 25°45' W 080°07'612.1
2017-Sep-18 09:30N 25°48' W 080°00'612.4
2017-Sep-18 09:00N 25°51' W 079°55'611.2
2017-Sep-18 08:30N 25°53' W 079°49'611.2
2017-Sep-18 08:00N 25°56' W 079°44'611.2
2017-Sep-18 07:30N 25°59' W 079°38'18 0.3
2017-Sep-16 05:01N 26°10' W 079°23'414.1
2017-Sep-16 04:44N 26°08' W 079°26'313.4
2017-Sep-16 04:30N 26°06' W 079°29'713.2
2017-Sep-16 04:00N 26°02' W 079°35'713.3
2017-Sep-16 03:30N 25°59' W 079°42'713.1
2017-Sep-16 03:00N 25°55' W 079°48'713.2
2017-Sep-16 02:30N 25°52' W 079°54'713.2
2017-Sep-16 02:00N 25°48' W 080°00'611.6
2017-Sep-16 01:30N 25°46' W 080°06'4 8.6
2017-Sep-16 01:00N 25°47' W 080°11'0 0.1
2017-Sep-16 00:28N 25°47' W 080°11'0 0.0
2017-Sep-15 23:58N 25°47' W 080°11'0 0.0
2017-Sep-15 23:28N 25°47' W 080°11'0 0.0
2017-Sep-15 22:58N 25°47' W 080°11'0 0.0
2017-Sep-15 22:28N 25°47' W 080°11'0 0.0
2017-Sep-15 21:58N 25°47' W 080°11'0 0.0
2017-Sep-15 21:28N 25°47' W 080°11'0 0.0
2017-Sep-15 20:58N 25°47' W 080°11'0 0.0
2017-Sep-15 20:28N 25°47' W 080°11'0 0.0
2017-Sep-15 19:52N 25°47' W 080°11'0 0.0
2017-Sep-15 19:28N 25°47' W 080°11'0 0.3
2017-Sep-15 18:58N 25°47' W 080°11'0 0.0
2017-Sep-15 18:28N 25°47' W 080°10'0 0.0
2017-Sep-15 17:58N 25°47' W 080°10'0 0.0
2017-Sep-15 17:25N 25°47' W 080°10'0 0.0
2017-Sep-15 16:55N 25°47' W 080°10'0 0.0
2017-Sep-15 16:28N 25°47' W 080°10'0 0.0
2017-Sep-15 15:58N 25°47' W 080°10'0 0.0
2017-Sep-15 15:28N 25°47' W 080°10'0 0.0
2017-Sep-15 14:58N 25°47' W 080°10'0 0.0
2017-Sep-15 14:28N 25°47' W 080°10'0 0.0
2017-Sep-15 13:55N 25°47' W 080°10'0 0.0
2017-Sep-15 13:28N 25°47' W 080°10'0 0.0
2017-Sep-15 12:55N 25°47' W 080°10'0 0.0
2017-Sep-15 12:28N 25°47' W 080°10'0 0.0
2017-Sep-15 11:55N 25°47' W 080°10'0 0.0
2017-Sep-15 11:25N 25°47' W 080°10'0 0.0
2017-Sep-15 10:58N 25°47' W 080°10'0 0.0
2017-Sep-15 10:28N 25°47' W 080°10'0 0.0
2017-Sep-15 09:58N 25°47' W 080°10'0 0.0
2017-Sep-15 09:28N 25°47' W 080°10'0 0.0
2017-Sep-15 08:58N 25°47' W 080°10'0 0.0
2017-Sep-15 08:28N 25°47' W 080°10'0 0.0
2017-Sep-15 07:58N 25°47' W 080°10'0 0.0
2017-Sep-15 07:28N 25°47' W 080°10'0 0.0
2017-Sep-15 06:58N 25°47' W 080°10'0 0.0
2017-Sep-15 06:28N 25°47' W 080°10'0 0.0
2017-Sep-15 05:58N 25°47' W 080°10'0 0.0
2017-Sep-15 05:28N 25°47' W 080°10'0 0.0
2017-Sep-15 04:58N 25°47' W 080°10'0 0.0
2017-Sep-15 04:28N 25°47' W 080°10'0 0.0
2017-Sep-15 03:58N 25°47' W 080°10'0 0.0
2017-Sep-15 03:28N 25°47' W 080°10'0 0.0
2017-Sep-15 02:58N 25°47' W 080°10'0 0.0
2017-Sep-15 02:28N 25°47' W 080°10'0 0.0
2017-Sep-15 01:58N 25°47' W 080°10'0 0.0
2017-Sep-15 01:28N 25°47' W 080°10'0 0.0
2017-Sep-15 00:55N 25°47' W 080°10'0 0.0
2017-Sep-15 00:28N 25°47' W 080°10'0 0.0
2017-Sep-14 23:58N 25°47' W 080°10'0 0.0
2017-Sep-14 23:28N 25°47' W 080°10'0 0.9
2017-Sep-14 23:01N 25°47' W 080°11'2 4.3
2017-Sep-14 22:30N 25°46' W 080°09'611.1
2017-Sep-14 22:01N 25°47' W 080°03'4 8.1
2017-Sep-14 21:31N 25°48' W 079°58'714.1
2017-Sep-14 21:00N 25°51' W 079°51'0 0.7
2017-Sep-14 20:30N 25°51' W 079°51'510.7
2017-Sep-14 20:00N 25°45' W 079°52'510.7
2017-Sep-14 19:30N 25°40' W 079°52'2 4.3
2017-Sep-14 19:00N 25°41' W 079°50'3 5.9
2017-Sep-14 18:30N 25°44' W 079°49'3 6.2
2017-Sep-14 18:00N 25°47' W 079°51'816.0
2017-Sep-14 17:30N 25°47' W 079°60'713.5
2017-Sep-14 17:01N 25°45' W 080°07'4 7.7
2017-Sep-14 16:31N 25°47' W 080°11'0 0.7
2017-Sep-14 15:58N 25°47' W 080°11'0 0.0
2017-Sep-14 15:28N 25°47' W 080°11'0 0.0
2017-Sep-14 14:58N 25°47' W 080°11'0 0.0
2017-Sep-14 14:28N 25°47' W 080°11'0 0.0
2017-Sep-14 13:58N 25°47' W 080°11'0 0.0
2017-Sep-14 13:28N 25°47' W 080°11'0 0.0
2017-Sep-14 12:58N 25°47' W 080°11'0 0.0
2017-Sep-14 12:28N 25°47' W 080°11'0 0.0
2017-Sep-14 11:58N 25°47' W 080°11'0 0.0
2017-Sep-14 11:28N 25°47' W 080°11'0 0.0
2017-Sep-14 10:46N 25°47' W 080°11'0 0.0
2017-Sep-14 10:28N 25°47' W 080°11'0 0.0
2017-Sep-14 09:46N 25°47' W 080°11'0 0.0
2017-Sep-14 09:25N 25°47' W 080°11'0 0.0
2017-Sep-14 08:58N 25°47' W 080°11'0 0.0
2017-Sep-14 08:25N 25°47' W 080°11'0 0.0
2017-Sep-14 07:58N 25°47' W 080°11'0 0.0
2017-Sep-14 07:28N 25°47' W 080°11'0 0.0
2017-Sep-14 06:58N 25°47' W 080°11'0 0.0
2017-Sep-14 06:28N 25°47' W 080°11'0 0.0
2017-Sep-14 05:58N 25°47' W 080°11'0 0.0
2017-Sep-14 05:28N 25°47' W 080°11'0 0.0
2017-Sep-14 04:58N 25°47' W 080°11'0 0.0
2017-Sep-14 04:28N 25°47' W 080°11'0 0.0
2017-Sep-14 03:58N 25°47' W 080°11'0 0.0
2017-Sep-14 03:19N 25°47' W 080°11'0 0.0
2017-Sep-14 02:58N 25°47' W 080°11'0 0.0
2017-Sep-14 02:28N 25°47' W 080°11'0 0.0
2017-Sep-14 01:58N 25°47' W 080°11'0 0.0
2017-Sep-14 01:28N 25°47' W 080°11'0 0.0
2017-Sep-14 00:55N 25°47' W 080°11'0 0.0
2017-Sep-14 00:28N 25°47' W 080°11'0 0.0
2017-Sep-13 23:58N 25°47' W 080°11'0 0.0
2017-Sep-13 23:28N 25°47' W 080°11'0 0.0
2017-Sep-13 22:49N 25°47' W 080°11'0 0.0
2017-Sep-13 22:28N 25°47' W 080°11'0 0.0
2017-Sep-13 21:58N 25°47' W 080°11'0 0.0
2017-Sep-13 21:28N 25°47' W 080°11'0 0.0
2017-Sep-13 20:55N 25°47' W 080°11'0 0.0
2017-Sep-13 20:28N 25°47' W 080°11'0 0.0
2017-Sep-13 19:58N 25°47' W 080°11'0 0.0
2017-Sep-13 19:28N 25°47' W 080°11'0 0.0
2017-Sep-13 18:52N 25°47' W 080°11'0 0.0
2017-Sep-13 18:25N 25°47' W 080°11'0 0.0
2017-Sep-13 17:55N 25°47' W 080°11'0 0.0
2017-Sep-13 17:28N 25°47' W 080°11'0 0.0
2017-Sep-13 16:58N 25°47' W 080°11'0 0.0
2017-Sep-13 16:28N 25°47' W 080°11'0 0.0
2017-Sep-13 15:58N 25°47' W 080°11'0 0.0
2017-Sep-13 15:28N 25°47' W 080°11'0 0.4
2017-Sep-13 14:58N 25°47' W 080°11'0 0.0
2017-Sep-13 14:28N 25°47' W 080°11'0 0.0
2017-Sep-13 13:58N 25°47' W 080°11'0 0.0
2017-Sep-13 13:28N 25°47' W 080°11'0 0.0
2017-Sep-13 12:58N 25°47' W 080°11'0 0.0
2017-Sep-13 12:28N 25°47' W 080°11'0 0.0
2017-Sep-13 11:58N 25°47' W 080°11'0 0.0
2017-Sep-13 11:28N 25°47' W 080°11'0 0.0
2017-Sep-13 10:58N 25°47' W 080°11'0 0.0
2017-Sep-13 10:28N 25°47' W 080°11'0 0.0
2017-Sep-13 09:58N 25°47' W 080°11'0 0.0
2017-Sep-13 09:22N 25°47' W 080°11'0 0.0
2017-Sep-13 08:58N 25°47' W 080°11'0 0.0
2017-Sep-13 08:25N 25°47' W 080°11'0 0.0
2017-Sep-13 07:58N 25°47' W 080°11'0 0.0
2017-Sep-13 07:28N 25°47' W 080°11'0 0.0
2017-Sep-13 06:58N 25°47' W 080°11'0 0.0
2017-Sep-13 06:22N 25°47' W 080°11'0 0.0
2017-Sep-13 05:55N 25°47' W 080°11'0 0.0
2017-Sep-13 05:28N 25°47' W 080°11'0 0.0
2017-Sep-13 04:58N 25°47' W 080°11'0 0.0
2017-Sep-13 04:28N 25°47' W 080°11'0 0.0
2017-Sep-13 03:55N 25°47' W 080°11'0 0.0
2017-Sep-13 03:28N 25°47' W 080°11'0 0.0
2017-Sep-13 02:58N 25°47' W 080°11'0 0.0
2017-Sep-13 02:28N 25°47' W 080°11'0 0.0
2017-Sep-13 01:55N 25°47' W 080°11'0 0.0
2017-Sep-13 01:25N 25°47' W 080°11'0 0.0
2017-Sep-13 00:55N 25°47' W 080°11'0 0.0
2017-Sep-13 00:28N 25°47' W 080°11'0 0.0
2017-Sep-12 23:58N 25°47' W 080°11'3 5.9
2017-Sep-12 23:30N 25°46' W 080°08'5 9.0
2017-Sep-12 23:01N 25°47' W 080°03'0 0.8
2017-Sep-12 22:30N 25°47' W 080°03'3 6.8
2017-Sep-12 22:00N 25°49' W 079°60'0 0.8
2017-Sep-12 21:30N 25°49' W 079°59'1 1.4
2017-Sep-12 21:00N 25°49' W 080°00'0 0.6
2017-Sep-12 20:30N 25°49' W 079°60'1 1.4
2017-Sep-12 20:00N 25°49' W 079°59'2 4.7
2017-Sep-12 19:31N 25°49' W 079°57'3 5.6
2017-Sep-12 19:00N 25°48' W 079°54'5 9.7
2017-Sep-12 18:30N 25°43' W 079°54'4 8.6
2017-Sep-12 18:00N 25°41' W 079°50'4 7.5
2017-Sep-12 17:30N 25°44' W 079°48'4 7.7
2017-Sep-12 17:00N 25°48' W 079°50'4 7.5
2017-Sep-12 16:31N 25°51' W 079°52'4 7.3
2017-Sep-12 16:00N 25°53' W 079°55'2 4.7
2017-Sep-12 15:30N 25°55' W 079°56'2 3.7
2017-Sep-12 15:00N 25°57' W 079°56'1 2.7
2017-Sep-12 14:31N 25°56' W 079°56'2 3.5
2017-Sep-12 14:01N 25°54' W 079°56'2 3.4
2017-Sep-12 13:30N 25°53' W 079°56'3 6.1
2017-Sep-12 13:01N 25°49' W 079°56'1 1.9
2017-Sep-12 12:31N 25°50' W 079°57'1 1.8
2017-Sep-12 12:00N 25°51' W 079°57'1 1.9
2017-Sep-12 11:30N 25°52' W 079°57'3 5.2
2017-Sep-12 11:00N 25°49' W 079°56'510.0
2017-Sep-12 10:30N 25°44' W 079°56'612.6
2017-Sep-12 10:01N 25°39' W 079°53'816.5
2017-Sep-12 09:30N 25°31' W 079°50'916.9
2017-Sep-12 08:59N 25°23' W 079°51'  
Track history (hours):
 
Tides and Currents Weather Stations Pressure Air Temp Water Temp Dewpoint Dewpoint Depression Visibility Wind Speed Wind Dir Waves Ship Positions

Enchantment of the Seas (Bahamas)

Last reported at 2017-Sep-18 22:43 UTC. Time now 2017-Sep-20 00:34 UTC.
Position N 25°57' W 079°42'.

Type: Passenger vessel. MMSI: 311733000.

Date/timePositionNaut miles runAvg speedWind from/ knotsBaromVisibWave heightAir tempDewpointWater temp
2017-Sep-18 22:43N 25°57' W 079°42'613.7
2017-Sep-18 22:16N 25°54' W 079°49'413.4
2017-Sep-18 21:59N 25°52' W 079°52'613.2
2017-Sep-18 21:30N 25°49' W 079°58'612.6
2017-Sep-18 21:00N 25°46' W 080°05'5 9.2
2017-Sep-18 20:30N 25°46' W 080°10'1 2.2
2017-Sep-18 20:00N 25°47' W 080°11'0 0.1
2017-Sep-18 19:30N 25°47' W 080°11'0 0.0
2017-Sep-18 19:00N 25°47' W 080°11'0 0.0
2017-Sep-18 18:27N 25°47' W 080°11'0 0.0
2017-Sep-18 17:57N 25°47' W 080°11'0 0.0
2017-Sep-18 17:30N 25°47' W 080°11'0 0.0
2017-Sep-18 17:00N 25°47' W 080°11'0 0.0
2017-Sep-18 16:30N 25°47' W 080°11'0 0.0
2017-Sep-18 15:57N 25°47' W 080°11'0 0.0
2017-Sep-18 15:30N 25°47' W 080°11'0 0.0
2017-Sep-18 15:00N 25°47' W 080°11'0 0.0
2017-Sep-18 14:27N 25°47' W 080°11'0 0.0
2017-Sep-18 13:57N 25°47' W 080°11'0 0.0
2017-Sep-18 13:27N 25°47' W 080°11'0 0.0
2017-Sep-18 13:00N 25°47' W 080°11'0 0.0
2017-Sep-18 12:30N 25°47' W 080°11'0 0.0
2017-Sep-18 12:00N 25°47' W 080°11'0 0.0
2017-Sep-18 11:27N 25°47' W 080°11'0 0.0
2017-Sep-18 10:57N 25°47' W 080°11'0 0.4
2017-Sep-18 10:30N 25°47' W 080°11'4 7.4
2017-Sep-18 10:01N 25°45' W 080°07'612.1
2017-Sep-18 09:30N 25°48' W 080°00'612.4
2017-Sep-18 09:00N 25°51' W 079°55'611.2
2017-Sep-18 08:30N 25°53' W 079°49'611.2
2017-Sep-18 08:00N 25°56' W 079°44'611.2
2017-Sep-18 07:30N 25°59' W 079°38'18 0.3
2017-Sep-16 05:01N 26°10' W 079°23'414.1
2017-Sep-16 04:44N 26°08' W 079°26'313.4
2017-Sep-16 04:30N 26°06' W 079°29'713.2
2017-Sep-16 04:00N 26°02' W 079°35'713.3
2017-Sep-16 03:30N 25°59' W 079°42'713.1
2017-Sep-16 03:00N 25°55' W 079°48'713.2
2017-Sep-16 02:30N 25°52' W 079°54'713.2
2017-Sep-16 02:00N 25°48' W 080°00'611.6
2017-Sep-16 01:30N 25°46' W 080°06'4 8.6
2017-Sep-16 01:00N 25°47' W 080°11'0 0.1
2017-Sep-16 00:28N 25°47' W 080°11'0 0.0
2017-Sep-15 23:58N 25°47' W 080°11'0 0.0
2017-Sep-15 23:28N 25°47' W 080°11'0 0.0
2017-Sep-15 22:58N 25°47' W 080°11'0 0.0
2017-Sep-15 22:28N 25°47' W 080°11'0 0.0
2017-Sep-15 21:58N 25°47' W 080°11'0 0.0
2017-Sep-15 21:28N 25°47' W 080°11'0 0.0
2017-Sep-15 20:58N 25°47' W 080°11'0 0.0
2017-Sep-15 20:28N 25°47' W 080°11'0 0.0
2017-Sep-15 19:52N 25°47' W 080°11'0 0.0
2017-Sep-15 19:28N 25°47' W 080°11'0 0.3
2017-Sep-15 18:58N 25°47' W 080°11'0 0.0
2017-Sep-15 18:28N 25°47' W 080°10'0 0.0
2017-Sep-15 17:58N 25°47' W 080°10'0 0.0
2017-Sep-15 17:25N 25°47' W 080°10'0 0.0
2017-Sep-15 16:55N 25°47' W 080°10'0 0.0
2017-Sep-15 16:28N 25°47' W 080°10'0 0.0
2017-Sep-15 15:58N 25°47' W 080°10'0 0.0
2017-Sep-15 15:28N 25°47' W 080°10'0 0.0
2017-Sep-15 14:58N 25°47' W 080°10'0 0.0
2017-Sep-15 14:28N 25°47' W 080°10'0 0.0
2017-Sep-15 13:55N 25°47' W 080°10'0 0.0
2017-Sep-15 13:28N 25°47' W 080°10'0 0.0
2017-Sep-15 12:55N 25°47' W 080°10'0 0.0
2017-Sep-15 12:28N 25°47' W 080°10'0 0.0
2017-Sep-15 11:55N 25°47' W 080°10'0 0.0
2017-Sep-15 11:25N 25°47' W 080°10'0 0.0
2017-Sep-15 10:58N 25°47' W 080°10'0 0.0
2017-Sep-15 10:28N 25°47' W 080°10'0 0.0
2017-Sep-15 09:58N 25°47' W 080°10'0 0.0
2017-Sep-15 09:28N 25°47' W 080°10'0 0.0
2017-Sep-15 08:58N 25°47' W 080°10'0 0.0
2017-Sep-15 08:28N 25°47' W 080°10'0 0.0
2017-Sep-15 07:58N 25°47' W 080°10'0 0.0
2017-Sep-15 07:28N 25°47' W 080°10'0 0.0
2017-Sep-15 06:58N 25°47' W 080°10'0 0.0
2017-Sep-15 06:28N 25°47' W 080°10'0 0.0
2017-Sep-15 05:58N 25°47' W 080°10'0 0.0
2017-Sep-15 05:28N 25°47' W 080°10'0 0.0
2017-Sep-15 04:58N 25°47' W 080°10'0 0.0
2017-Sep-15 04:28N 25°47' W 080°10'0 0.0
2017-Sep-15 03:58N 25°47' W 080°10'0 0.0
2017-Sep-15 03:28N 25°47' W 080°10'0 0.0
2017-Sep-15 02:58N 25°47' W 080°10'0 0.0
2017-Sep-15 02:28N 25°47' W 080°10'0 0.0
2017-Sep-15 01:58N 25°47' W 080°10'0 0.0
2017-Sep-15 01:28N 25°47' W 080°10'0 0.0
2017-Sep-15 00:55N 25°47' W 080°10'0 0.0
2017-Sep-15 00:28N 25°47' W 080°10'0 0.0
2017-Sep-14 23:58N 25°47' W 080°10'0 0.0
2017-Sep-14 23:28N 25°47' W 080°10'0 0.9
2017-Sep-14 23:01N 25°47' W 080°11'2 4.3
2017-Sep-14 22:30N 25°46' W 080°09'611.1
2017-Sep-14 22:01N 25°47' W 080°03'4 8.1
2017-Sep-14 21:31N 25°48' W 079°58'714.1
2017-Sep-14 21:00N 25°51' W 079°51'0 0.7
2017-Sep-14 20:30N 25°51' W 079°51'510.7
2017-Sep-14 20:00N 25°45' W 079°52'510.7
2017-Sep-14 19:30N 25°40' W 079°52'2 4.3
2017-Sep-14 19:00N 25°41' W 079°50'3 5.9
2017-Sep-14 18:30N 25°44' W 079°49'3 6.2
2017-Sep-14 18:00N 25°47' W 079°51'816.0
2017-Sep-14 17:30N 25°47' W 079°60'713.5
2017-Sep-14 17:01N 25°45' W 080°07'4 7.7
2017-Sep-14 16:31N 25°47' W 080°11'0 0.7
2017-Sep-14 15:58N 25°47' W 080°11'0 0.0
2017-Sep-14 15:28N 25°47' W 080°11'0 0.0
2017-Sep-14 14:58N 25°47' W 080°11'0 0.0
2017-Sep-14 14:28N 25°47' W 080°11'0 0.0
2017-Sep-14 13:58N 25°47' W 080°11'0 0.0
2017-Sep-14 13:28N 25°47' W 080°11'0 0.0
2017-Sep-14 12:58N 25°47' W 080°11'0 0.0
2017-Sep-14 12:28N 25°47' W 080°11'0 0.0
2017-Sep-14 11:58N 25°47' W 080°11'0 0.0
2017-Sep-14 11:28N 25°47' W 080°11'0 0.0
2017-Sep-14 10:46N 25°47' W 080°11'0 0.0
2017-Sep-14 10:28N 25°47' W 080°11'0 0.0
2017-Sep-14 09:46N 25°47' W 080°11'0 0.0
2017-Sep-14 09:25N 25°47' W 080°11'0 0.0
2017-Sep-14 08:58N 25°47' W 080°11'0 0.0
2017-Sep-14 08:25N 25°47' W 080°11'0 0.0
2017-Sep-14 07:58N 25°47' W 080°11'0 0.0
2017-Sep-14 07:28N 25°47' W 080°11'0 0.0
2017-Sep-14 06:58N 25°47' W 080°11'0 0.0
2017-Sep-14 06:28N 25°47' W 080°11'0 0.0
2017-Sep-14 05:58N 25°47' W 080°11'0 0.0
2017-Sep-14 05:28N 25°47' W 080°11'0 0.0
2017-Sep-14 04:58N 25°47' W 080°11'0 0.0
2017-Sep-14 04:28N 25°47' W 080°11'0 0.0
2017-Sep-14 03:58N 25°47' W 080°11'0 0.0
2017-Sep-14 03:19N 25°47' W 080°11'0 0.0
2017-Sep-14 02:58N 25°47' W 080°11'0 0.0
2017-Sep-14 02:28N 25°47' W 080°11'0 0.0
2017-Sep-14 01:58N 25°47' W 080°11'0 0.0
2017-Sep-14 01:28N 25°47' W 080°11'0 0.0
2017-Sep-14 00:55N 25°47' W 080°11'0 0.0
2017-Sep-14 00:28N 25°47' W 080°11'0 0.0
2017-Sep-13 23:58N 25°47' W 080°11'0 0.0
2017-Sep-13 23:28N 25°47' W 080°11'0 0.0
2017-Sep-13 22:49N 25°47' W 080°11'0 0.0
2017-Sep-13 22:28N 25°47' W 080°11'0 0.0
2017-Sep-13 21:58N 25°47' W 080°11'0 0.0
2017-Sep-13 21:28N 25°47' W 080°11'0 0.0
2017-Sep-13 20:55N 25°47' W 080°11'0 0.0
2017-Sep-13 20:28N 25°47' W 080°11'0 0.0
2017-Sep-13 19:58N 25°47' W 080°11'0 0.0
2017-Sep-13 19:28N 25°47' W 080°11'0 0.0
2017-Sep-13 18:52N 25°47' W 080°11'0 0.0
2017-Sep-13 18:25N 25°47' W 080°11'0 0.0
2017-Sep-13 17:55N 25°47' W 080°11'0 0.0
2017-Sep-13 17:28N 25°47' W 080°11'0 0.0
2017-Sep-13 16:58N 25°47' W 080°11'0 0.0
2017-Sep-13 16:28N 25°47' W 080°11'0 0.0
2017-Sep-13 15:58N 25°47' W 080°11'0 0.0
2017-Sep-13 15:28N 25°47' W 080°11'0 0.4
2017-Sep-13 14:58N 25°47' W 080°11'0 0.0
2017-Sep-13 14:28N 25°47' W 080°11'0 0.0
2017-Sep-13 13:58N 25°47' W 080°11'0 0.0
2017-Sep-13 13:28N 25°47' W 080°11'0 0.0
2017-Sep-13 12:58N 25°47' W 080°11'0 0.0
2017-Sep-13 12:28N 25°47' W 080°11'0 0.0
2017-Sep-13 11:58N 25°47' W 080°11'0 0.0
2017-Sep-13 11:28N 25°47' W 080°11'0 0.0
2017-Sep-13 10:58N 25°47' W 080°11'0 0.0
2017-Sep-13 10:28N 25°47' W 080°11'0 0.0
2017-Sep-13 09:58N 25°47' W 080°11'0 0.0
2017-Sep-13 09:22N 25°47' W 080°11'0 0.0
2017-Sep-13 08:58N 25°47' W 080°11'0 0.0
2017-Sep-13 08:25N 25°47' W 080°11'0 0.0
2017-Sep-13 07:58N 25°47' W 080°11'0 0.0
2017-Sep-13 07:28N 25°47' W 080°11'0 0.0
2017-Sep-13 06:58N 25°47' W 080°11'0 0.0
2017-Sep-13 06:22N 25°47' W 080°11'0 0.0
2017-Sep-13 05:55N 25°47' W 080°11'0 0.0
2017-Sep-13 05:28N 25°47' W 080°11'0 0.0
2017-Sep-13 04:58N 25°47' W 080°11'0 0.0
2017-Sep-13 04:28N 25°47' W 080°11'0 0.0
2017-Sep-13 03:55N 25°47' W 080°11'0 0.0
2017-Sep-13 03:28N 25°47' W 080°11'0 0.0
2017-Sep-13 02:58N 25°47' W 080°11'0 0.0
2017-Sep-13 02:28N 25°47' W 080°11'0 0.0
2017-Sep-13 01:55N 25°47' W 080°11'0 0.0
2017-Sep-13 01:25N 25°47' W 080°11'0 0.0
2017-Sep-13 00:55N 25°47' W 080°11'0 0.0
2017-Sep-13 00:28N 25°47' W 080°11'0 0.0
2017-Sep-12 23:58N 25°47' W 080°11'3 5.9
2017-Sep-12 23:30N 25°46' W 080°08'5 9.0
2017-Sep-12 23:01N 25°47' W 080°03'0 0.8
2017-Sep-12 22:30N 25°47' W 080°03'3 6.8
2017-Sep-12 22:00N 25°49' W 079°60'0 0.8
2017-Sep-12 21:30N 25°49' W 079°59'1 1.4
2017-Sep-12 21:00N 25°49' W 080°00'0 0.6
2017-Sep-12 20:30N 25°49' W 079°60'1 1.4
2017-Sep-12 20:00N 25°49' W 079°59'2 4.7
2017-Sep-12 19:31N 25°49' W 079°57'3 5.6
2017-Sep-12 19:00N 25°48' W 079°54'5 9.7
2017-Sep-12 18:30N 25°43' W 079°54'4 8.6
2017-Sep-12 18:00N 25°41' W 079°50'4 7.5
2017-Sep-12 17:30N 25°44' W 079°48'4 7.7
2017-Sep-12 17:00N 25°48' W 079°50'4 7.5
2017-Sep-12 16:31N 25°51' W 079°52'4 7.3
2017-Sep-12 16:00N 25°53' W 079°55'2 4.7
2017-Sep-12 15:30N 25°55' W 079°56'2 3.7
2017-Sep-12 15:00N 25°57' W 079°56'1 2.7
2017-Sep-12 14:31N 25°56' W 079°56'2 3.5
2017-Sep-12 14:01N 25°54' W 079°56'2 3.4
2017-Sep-12 13:30N 25°53' W 079°56'3 6.1
2017-Sep-12 13:01N 25°49' W 079°56'1 1.9
2017-Sep-12 12:31N 25°50' W 079°57'1 1.8
2017-Sep-12 12:00N 25°51' W 079°57'1 1.9
2017-Sep-12 11:30N 25°52' W 079°57'3 5.2
2017-Sep-12 11:00N 25°49' W 079°56'510.0
2017-Sep-12 10:30N 25°44' W 079°56'612.6
2017-Sep-12 10:01N 25°39' W 079°53'816.5
2017-Sep-12 09:30N 25°31' W 079°50'916.9
2017-Sep-12 08:59N 25°23' W 079°51'  

Dump ship's entire track history